Aérodrome :
LOGIN :

S'inscrire | Disclaimer

   EN    FR    IT 

 










Légende :    VFR   VFR Marginal   IFR   IFR Intensif   IFR Très Intensif
Visi : 
Plafond : 
>= 8 km
>= 3000ft
5 à 8 km
1000 à 3000 ft
1500m à 5 km
500 à 1000 ft
800 à 1500m
200 à 500 ft
< 800m
< 200 ft
Symboles :   Orages  Brouillard  Fortes neiges  Fortes précipitations  Vent > 20 kt
SIGMETs :   Divers  Orages  Givrage  Turbulence  Onde Orograph.  Cendres Volcan.







- Altitude de l'aérodrome : 870 ft
- Code IATA : ETZ
- Voir les cartes d'approche


LFJL - Metz Nancy Lorraine

DERNIER METAR :
  • 211330Z AUTO 22007KT 190V260 9999 FEW032 15/06 Q1028 NOSIG

METARs EXPIRÉS :
  • 211300Z AUTO 25006KT 200V290 CAVOK 14/06 Q1028 NOSIG
  • 211230Z AUTO 23006KT 200V280 CAVOK 13/06 Q1028 NOSIG
  • 211200Z AUTO 25005KT 220V280 CAVOK 13/06 Q1029 NOSIG
  • 211130Z AUTO 21005KT 180V240 CAVOK 12/06 Q1029 NOSIG

TAF TAF LFJL
Valide du 21 à 12h jusqu'au 22 à 12h UTC


211100Z 2112/2212 VRB03KT CAVOK
TEMPO 2113/2119 26006KT SCT025
BECMG 2123/2202 6000 BKN040
PROB40
TEMPO 2120/2201 4000 BR
TEMPO 2201/2211 3000 BR BKN005
PROB30
TEMPO 2203/2210 0800 FG -DZ VV///
BECMG 2210/2212 02006KT
Pas de NOTAMs connus pour ce terrain.



MET'MAP, la Météo Aéronautique d'un coup d'oeil ! - Copyright ORBIFLY Décembre 2007 - Disclaimer

ORBIFLY MET'MAP TEAM :

Programmation & Développement : Alexandra Zaïnal
Conception & Développement : Baudouin d'Aumeries
Co-Programmation & Développement : Marc-Olivier Méhu
Soutien technique & logistique : Manuel Goepfert

Contact : metmap@orbifly.com




SOURCES & CREDITS :

   NOAA